createdAt,value
2019-03-24T00:00:19.774Z,1022.37
2019-03-24T00:01:19.752Z,1022.38
2019-03-24T00:02:19.743Z,1022.39
2019-03-24T00:03:19.744Z,1022.32
2019-03-24T00:04:19.720Z,1022.37
2019-03-24T00:05:19.716Z,1022.37
2019-03-24T00:06:19.700Z,1022.40
2019-03-24T00:07:19.686Z,1022.40
2019-03-24T00:08:19.683Z,1022.37
2019-03-24T00:09:19.670Z,1022.39
2019-03-24T00:10:19.666Z,1022.38
2019-03-24T00:11:19.658Z,1022.36
2019-03-24T00:12:19.632Z,1022.34
2019-03-24T00:13:19.619Z,1022.35
2019-03-24T00:14:19.609Z,1022.34
2019-03-24T00:15:26.044Z,1022.36
2019-03-24T00:16:20.590Z,1022.36
2019-03-24T00:17:19.582Z,1022.33
2019-03-24T00:18:19.570Z,1022.38
2019-03-24T00:19:19.561Z,1022.37
2019-03-24T00:20:19.542Z,1022.32
2019-03-24T00:21:19.544Z,1022.34
2019-03-24T00:22:19.518Z,1022.37
2019-03-24T00:23:19.514Z,1022.42
2019-03-24T00:24:19.500Z,1022.42
2019-03-24T00:25:19.493Z,1022.44
2019-03-24T00:26:19.484Z,1022.47
2019-03-24T00:27:19.474Z,1022.49
2019-03-24T00:28:19.459Z,1022.46
2019-03-24T00:29:19.451Z,1022.49
2019-03-24T00:30:19.441Z,1022.48
2019-03-24T00:31:19.434Z,1022.44
2019-03-24T00:32:19.418Z,1022.48
2019-03-24T00:33:19.407Z,1022.45
2019-03-24T00:34:19.407Z,1022.43
2019-03-24T00:35:19.376Z,1022.40
2019-03-24T00:36:19.366Z,1022.40
2019-03-24T00:37:19.364Z,1022.36
2019-03-24T00:38:19.359Z,1022.41
2019-03-24T00:39:19.352Z,1022.48
2019-03-24T00:40:19.326Z,1022.45
2019-03-24T00:41:19.322Z,1022.46
2019-03-24T00:42:19.307Z,1022.48
2019-03-24T00:43:19.292Z,1022.47
2019-03-24T00:44:19.292Z,1022.46
2019-03-24T00:45:19.271Z,1022.46
2019-03-24T00:46:19.258Z,1022.48
2019-03-24T00:47:19.253Z,1022.46
2019-03-24T00:48:19.238Z,1022.43
2019-03-24T00:49:19.232Z,1022.45
2019-03-24T00:50:19.230Z,1022.40
2019-03-24T00:51:19.204Z,1022.38
2019-03-24T00:52:19.194Z,1022.43
2019-03-24T00:53:19.183Z,1022.41
2019-03-24T00:54:19.172Z,1022.38
2019-03-24T00:55:19.164Z,1022.37
2019-03-24T00:56:19.148Z,1022.39
2019-03-24T00:57:19.140Z,1022.41
2019-03-24T00:58:19.128Z,1022.40
2019-03-24T00:59:19.119Z,1022.38
2019-03-24T01:00:19.108Z,1022.38
2019-03-24T01:01:19.102Z,1022.39
2019-03-24T01:02:19.086Z,1022.44
2019-03-24T01:03:19.079Z,1022.44
2019-03-24T01:04:19.059Z,1022.43
2019-03-24T01:05:19.057Z,1022.40
2019-03-24T01:06:19.051Z,1022.41
2019-03-24T01:07:19.027Z,1022.41
2019-03-24T01:08:19.019Z,1022.44
2019-03-24T01:09:19.006Z,1022.45
2019-03-24T01:10:19.000Z,1022.48
2019-03-24T01:11:18.990Z,1022.39
2019-03-24T01:12:18.985Z,1022.42
2019-03-24T01:13:18.962Z,1022.41
2019-03-24T01:14:18.957Z,1022.38
2019-03-24T01:15:18.942Z,1022.39
2019-03-24T01:16:18.930Z,1022.35
2019-03-24T01:17:18.959Z,1022.30
2019-03-24T01:18:18.918Z,1022.35
2019-03-24T01:19:18.898Z,1022.30
2019-03-24T01:20:18.884Z,1022.27
2019-03-24T01:21:18.875Z,1022.29
2019-03-24T01:22:18.869Z,1022.28
2019-03-24T01:23:18.862Z,1022.32
2019-03-24T01:24:18.846Z,1022.28
2019-03-24T01:25:18.833Z,1022.28
2019-03-24T01:26:18.822Z,1022.27
2019-03-24T01:27:18.810Z,1022.25
2019-03-24T01:28:18.800Z,1022.27
2019-03-24T01:29:18.800Z,1022.27
2019-03-24T01:30:18.774Z,1022.26
2019-03-24T01:31:18.771Z,1022.29
2019-03-24T01:32:18.758Z,1022.26
2019-03-24T01:33:18.749Z,1022.21
2019-03-24T01:34:18.733Z,1022.24
2019-03-24T01:35:18.738Z,1022.31
2019-03-24T01:36:18.709Z,1022.27
2019-03-24T01:37:18.705Z,1022.24
2019-03-24T01:38:18.694Z,1022.21
2019-03-24T01:39:18.685Z,1022.25
2019-03-24T01:40:18.686Z,1022.24
2019-03-24T01:41:18.664Z,1022.22
2019-03-24T01:42:18.659Z,1022.19
2019-03-24T01:43:18.635Z,1022.18
2019-03-24T01:44:18.635Z,1022.12
2019-03-24T01:45:18.619Z,1022.13
2019-03-24T01:46:18.616Z,1022.13
2019-03-24T01:47:18.597Z,1022.13
2019-03-24T01:48:18.587Z,1022.13
2019-03-24T01:49:18.574Z,1022.15
2019-03-24T01:50:18.568Z,1022.12
2019-03-24T01:51:18.564Z,1022.13
2019-03-24T01:52:18.563Z,1022.14
2019-03-24T01:53:18.531Z,1022.15
2019-03-24T01:54:18.521Z,1022.11
2019-03-24T01:55:18.509Z,1022.20
2019-03-24T01:56:18.499Z,1022.18
2019-03-24T01:57:18.493Z,1022.23
2019-03-24T01:58:18.477Z,1022.18
2019-03-24T01:59:18.464Z,1022.14
2019-03-24T02:00:18.462Z,1022.17
2019-03-24T02:01:18.461Z,1022.16
2019-03-24T02:02:18.447Z,1022.11
2019-03-24T02:03:18.427Z,1022.13
2019-03-24T02:04:18.411Z,1022.10
2019-03-24T02:05:18.395Z,1022.11
2019-03-24T02:06:18.391Z,1022.11
2019-03-24T02:07:18.385Z,1022.09
2019-03-24T02:08:18.381Z,1022.10
2019-03-24T02:09:18.369Z,1022.11
2019-03-24T02:10:18.350Z,1022.08
2019-03-24T02:11:18.343Z,1022.04
2019-03-24T02:12:18.334Z,1022.09
2019-03-24T02:13:18.318Z,1022.05
2019-03-24T02:14:18.311Z,1022.05
2019-03-24T02:15:18.294Z,1022.08
2019-03-24T02:16:18.285Z,1022.08
2019-03-24T02:17:18.273Z,1021.98
2019-03-24T02:18:18.268Z,1022.00
2019-03-24T02:19:18.253Z,1021.98
2019-03-24T02:20:18.247Z,1022.02
2019-03-24T02:21:18.225Z,1022.01
2019-03-24T02:22:18.218Z,1022.01
2019-03-24T02:23:18.208Z,1022.06
2019-03-24T02:24:18.200Z,1021.99
2019-03-24T02:25:18.200Z,1022.01
2019-03-24T02:26:18.183Z,1021.99
2019-03-24T02:27:18.167Z,1022.00
2019-03-24T02:28:18.153Z,1022.01
2019-03-24T02:29:18.142Z,1022.02
2019-03-24T02:30:18.135Z,1022.01
2019-03-24T02:31:18.122Z,1022.02
2019-03-24T02:32:18.107Z,1022.00
2019-03-24T02:33:18.098Z,1021.98
2019-03-24T02:34:18.097Z,1021.95
2019-03-24T02:35:18.095Z,1021.96
2019-03-24T02:36:18.072Z,1021.92
2019-03-24T02:37:18.073Z,1021.92
2019-03-24T02:38:18.045Z,1021.90
2019-03-24T02:39:18.037Z,1021.91
2019-03-24T02:40:18.025Z,1021.92
2019-03-24T02:41:18.011Z,1021.88
2019-03-24T02:42:18.008Z,1021.92
2019-03-24T02:43:17.990Z,1021.91
2019-03-24T02:44:17.980Z,1022.01
2019-03-24T02:45:17.966Z,1021.99
2019-03-24T02:46:24.084Z,1021.95
2019-03-24T02:47:18.946Z,1021.96
2019-03-24T02:48:17.936Z,1021.95
2019-03-24T02:49:17.935Z,1021.95
2019-03-24T02:50:17.915Z,1021.97
2019-03-24T02:51:17.901Z,1021.92
2019-03-24T02:52:17.895Z,1021.96
2019-03-24T02:53:17.886Z,1021.93
2019-03-24T02:54:17.871Z,1021.89
2019-03-24T02:55:17.855Z,1021.86
2019-03-24T02:56:17.846Z,1021.84
2019-03-24T02:57:17.845Z,1021.83
2019-03-24T02:58:17.852Z,1021.84
2019-03-24T02:59:17.819Z,1021.82
2019-03-24T03:00:17.807Z,1021.86
2019-03-24T03:01:17.797Z,1021.86
2019-03-24T03:02:17.799Z,1021.84
2019-03-24T03:03:17.775Z,1021.83
2019-03-24T03:04:17.761Z,1021.84
2019-03-24T03:05:17.759Z,1021.87
2019-03-24T03:06:17.738Z,1021.84
2019-03-24T03:07:17.734Z,1021.86
2019-03-24T03:08:17.715Z,1021.87
2019-03-24T03:09:17.712Z,1021.84
2019-03-24T03:10:17.704Z,1021.88
2019-03-24T03:11:17.696Z,1021.90
2019-03-24T03:12:17.674Z,1021.86
2019-03-24T03:13:17.668Z,1021.87
2019-03-24T03:14:17.666Z,1021.84
2019-03-24T03:15:17.644Z,1021.86
2019-03-24T03:16:17.650Z,1021.83
2019-03-24T03:17:17.619Z,1021.82
2019-03-24T03:18:17.614Z,1021.86
2019-03-24T03:19:17.601Z,1021.89
2019-03-24T03:20:17.595Z,1021.85
2019-03-24T03:21:17.583Z,1021.88
2019-03-24T03:22:17.574Z,1021.81
2019-03-24T03:23:17.565Z,1021.82
2019-03-24T03:24:17.556Z,1021.79
2019-03-24T03:25:17.540Z,1021.80
2019-03-24T03:26:17.536Z,1021.83
2019-03-24T03:27:17.519Z,1021.81
2019-03-24T03:28:17.500Z,1021.89
2019-03-24T03:29:17.492Z,1021.86
2019-03-24T03:30:17.645Z,1021.82
2019-03-24T03:31:17.479Z,1021.86
2019-03-24T03:32:17.463Z,1021.89
2019-03-24T03:33:17.477Z,1021.85
2019-03-24T03:34:17.463Z,1021.88
2019-03-24T03:35:17.427Z,1021.86
2019-03-24T03:36:17.419Z,1021.85
2019-03-24T03:37:17.422Z,1021.85
2019-03-24T03:38:17.397Z,1021.86
2019-03-24T03:39:17.393Z,1021.80
2019-03-24T03:40:17.378Z,1021.83
2019-03-24T03:41:17.370Z,1021.87
2019-03-24T03:42:17.357Z,1021.85
2019-03-24T03:43:17.341Z,1021.92
2019-03-24T03:44:17.345Z,1021.93
2019-03-24T03:45:17.328Z,1021.93
2019-03-24T03:46:17.327Z,1021.97
2019-03-24T03:47:17.298Z,1021.95
2019-03-24T03:48:17.287Z,1021.90
2019-03-24T03:49:17.284Z,1021.87
2019-03-24T03:50:17.266Z,1021.87
2019-03-24T03:51:17.260Z,1021.90
2019-03-24T03:52:17.249Z,1021.86
2019-03-24T03:53:17.236Z,1021.84
2019-03-24T03:54:17.234Z,1021.82
2019-03-24T03:55:17.216Z,1021.81
2019-03-24T03:56:17.208Z,1021.79
2019-03-24T03:57:17.187Z,1021.78
2019-03-24T03:58:17.178Z,1021.80
2019-03-24T03:59:17.163Z,1021.78
2019-03-24T04:00:17.158Z,1021.77
2019-03-24T04:01:17.163Z,1021.74
2019-03-24T04:02:17.144Z,1021.76
2019-03-24T04:03:17.127Z,1021.75
2019-03-24T04:04:17.115Z,1021.74
2019-03-24T04:05:17.108Z,1021.71
2019-03-24T04:06:17.090Z,1021.73
2019-03-24T04:07:17.085Z,1021.65
2019-03-24T04:08:17.075Z,1021.70
2019-03-24T04:09:17.058Z,1021.72
2019-03-24T04:10:17.048Z,1021.69
2019-03-24T04:11:17.056Z,1021.69
2019-03-24T04:12:17.030Z,1021.70
2019-03-24T04:13:17.028Z,1021.68
2019-03-24T04:14:17.005Z,1021.66
2019-03-24T04:15:16.994Z,1021.64
2019-03-24T04:16:16.981Z,1021.63
2019-03-24T04:17:16.973Z,1021.62
2019-03-24T04:18:16.969Z,1021.59
2019-03-24T04:19:16.952Z,1021.64
2019-03-24T04:20:16.937Z,1021.60
2019-03-24T04:21:16.930Z,1021.58
2019-03-24T04:22:16.929Z,1021.56
2019-03-24T04:23:16.917Z,1021.59
2019-03-24T04:24:16.900Z,1021.59
2019-03-24T04:25:16.892Z,1021.61
2019-03-24T04:26:16.870Z,1021.64
2019-03-24T04:27:16.863Z,1021.61
2019-03-24T04:28:16.858Z,1021.62
2019-03-24T04:29:16.849Z,1021.62
2019-03-24T04:30:16.839Z,1021.61
2019-03-24T04:31:16.897Z,1021.64
2019-03-24T04:32:16.814Z,1021.67
2019-03-24T04:33:16.807Z,1021.67
2019-03-24T04:34:16.788Z,1021.65
2019-03-24T04:35:16.786Z,1021.67
2019-03-24T04:36:16.772Z,1021.64
2019-03-24T04:37:16.756Z,1021.63
2019-03-24T04:38:16.753Z,1021.63
2019-03-24T04:39:16.740Z,1021.64
2019-03-24T04:40:16.725Z,1021.68
2019-03-24T04:41:16.729Z,1021.63
2019-03-24T04:42:16.702Z,1021.62
2019-03-24T04:43:16.698Z,1021.67
2019-03-24T04:44:16.678Z,1021.64
2019-03-24T04:45:16.668Z,1021.63
2019-03-24T04:46:16.669Z,1021.66
2019-03-24T04:47:16.996Z,1021.63
2019-03-24T04:48:16.642Z,1021.57
2019-03-24T04:49:16.625Z,1021.61
2019-03-24T04:50:16.620Z,1021.58
2019-03-24T04:51:16.604Z,1021.60
2019-03-24T04:52:16.606Z,1021.55
2019-03-24T04:53:16.587Z,1021.61
2019-03-24T04:54:16.570Z,1021.56
2019-03-24T04:55:16.560Z,1021.53
2019-03-24T04:56:16.562Z,1021.54
2019-03-24T04:57:16.546Z,1021.55
2019-03-24T04:58:16.537Z,1021.54
2019-03-24T04:59:16.517Z,1021.52
2019-03-24T05:00:16.504Z,1021.49
2019-03-24T05:01:16.496Z,1021.46
2019-03-24T05:02:16.480Z,1021.49
2019-03-24T05:03:16.486Z,1021.46
2019-03-24T05:04:16.473Z,1021.41
2019-03-24T05:05:16.450Z,1021.44
2019-03-24T05:06:16.451Z,1021.38
2019-03-24T05:07:16.436Z,1021.36
2019-03-24T05:08:16.421Z,1021.40
2019-03-24T05:09:16.411Z,1021.44
2019-03-24T05:10:16.395Z,1021.47
2019-03-24T05:11:16.468Z,1021.46
2019-03-24T05:12:16.382Z,1021.49
2019-03-24T05:13:16.376Z,1021.45
2019-03-24T05:14:16.360Z,1021.45
2019-03-24T05:15:16.354Z,1021.45
2019-03-24T05:16:16.336Z,1021.43
2019-03-24T05:17:26.505Z,1021.47
2019-03-24T05:18:17.318Z,1021.43
2019-03-24T05:19:16.306Z,1021.47
2019-03-24T05:20:16.302Z,1021.52
2019-03-24T05:21:16.284Z,1021.51
2019-03-24T05:22:16.272Z,1021.51
2019-03-24T05:23:16.260Z,1021.50
2019-03-24T05:24:16.252Z,1021.54
2019-03-24T05:25:16.240Z,1021.50
2019-03-24T05:26:16.240Z,1021.47
2019-03-24T05:27:16.213Z,1021.47
2019-03-24T05:28:16.201Z,1021.46
2019-03-24T05:29:16.192Z,1021.48
2019-03-24T05:30:16.195Z,1021.49
2019-03-24T05:31:16.180Z,1021.48
2019-03-24T05:32:16.174Z,1021.42
2019-03-24T05:33:16.148Z,1021.47
2019-03-24T05:34:16.140Z,1021.55
2019-03-24T05:35:16.128Z,1021.42
2019-03-24T05:36:16.125Z,1021.41
2019-03-24T05:37:16.104Z,1021.39
2019-03-24T05:38:16.097Z,1021.39
2019-03-24T05:39:16.094Z,1021.44
2019-03-24T05:40:16.076Z,1021.44
2019-03-24T05:41:16.066Z,1021.39
2019-03-24T05:42:16.065Z,1021.39
2019-03-24T05:43:16.043Z,1021.40
2019-03-24T05:44:16.032Z,1021.41
2019-03-24T05:45:16.024Z,1021.41
2019-03-24T05:46:16.017Z,1021.39
2019-03-24T05:47:16.006Z,1021.39
2019-03-24T05:48:15.993Z,1021.33
2019-03-24T05:49:15.988Z,1021.37
2019-03-24T05:50:15.970Z,1021.35
2019-03-24T05:51:15.956Z,1021.32
2019-03-24T05:52:15.952Z,1021.41
2019-03-24T05:53:15.941Z,1021.35
2019-03-24T05:54:15.935Z,1021.35
2019-03-24T05:55:15.916Z,1021.38
2019-03-24T05:56:15.904Z,1021.36
2019-03-24T05:57:15.894Z,1021.40
2019-03-24T05:58:15.888Z,1021.35
2019-03-24T05:59:15.875Z,1021.37
2019-03-24T06:00:15.866Z,1021.40
2019-03-24T06:01:15.851Z,1021.39
2019-03-24T06:02:15.842Z,1021.45
2019-03-24T06:03:15.829Z,1021.43
2019-03-24T06:04:15.822Z,1021.40
2019-03-24T06:05:15.810Z,1021.41
2019-03-24T06:06:15.804Z,1021.42
2019-03-24T06:07:15.791Z,1021.44
2019-03-24T06:08:15.783Z,1021.37
2019-03-24T06:09:15.770Z,1021.37
2019-03-24T06:10:15.760Z,1021.37
2019-03-24T06:11:15.754Z,1021.32
2019-03-24T06:12:15.737Z,1021.39
2019-03-24T06:13:15.726Z,1021.35
2019-03-24T06:14:15.716Z,1021.32
2019-03-24T06:15:15.708Z,1021.35
2019-03-24T06:16:15.690Z,1021.37
2019-03-24T06:17:15.679Z,1021.36
2019-03-24T06:18:15.671Z,1021.31
2019-03-24T06:19:15.658Z,1021.32
2019-03-24T06:20:15.646Z,1021.30
2019-03-24T06:21:15.640Z,1021.32
2019-03-24T06:22:15.626Z,1021.30
2019-03-24T06:23:15.622Z,1021.31
2019-03-24T06:24:15.606Z,1021.28
2019-03-24T06:25:15.640Z,1021.25
2019-03-24T06:26:15.586Z,1021.22
2019-03-24T06:27:15.568Z,1021.17
2019-03-24T06:28:15.562Z,1021.15
2019-03-24T06:29:15.566Z,1021.18
2019-03-24T06:30:15.536Z,1021.18
2019-03-24T06:31:15.532Z,1021.14
2019-03-24T06:32:15.515Z,1021.14
2019-03-24T06:33:15.502Z,1021.19
2019-03-24T06:34:15.497Z,1021.17
2019-03-24T06:35:15.492Z,1021.18
2019-03-24T06:36:15.480Z,1021.12
2019-03-24T06:37:15.474Z,1021.18
2019-03-24T06:38:15.458Z,1021.29
2019-03-24T06:39:15.446Z,1021.33
2019-03-24T06:40:15.434Z,1021.22
2019-03-24T06:41:15.420Z,1021.20
2019-03-24T06:42:15.414Z,1021.29
2019-03-24T06:43:15.398Z,1021.24
2019-03-24T06:44:15.389Z,1021.26
2019-03-24T06:45:15.401Z,1021.22
2019-03-24T06:46:15.365Z,1021.25
2019-03-24T06:47:15.356Z,1021.28
2019-03-24T06:48:15.351Z,1021.28
2019-03-24T06:49:15.334Z,1021.33
2019-03-24T06:50:15.322Z,1021.34
2019-03-24T06:51:15.314Z,1021.30
2019-03-24T06:52:15.324Z,1021.37
2019-03-24T06:53:15.326Z,1021.36
2019-03-24T06:54:15.279Z,1021.40
2019-03-24T06:55:15.277Z,1021.36
2019-03-24T06:56:15.302Z,1021.34
2019-03-24T06:57:16.978Z,1021.32
2019-03-24T06:58:15.238Z,1021.30
2019-03-24T06:59:15.227Z,1021.24
2019-03-24T07:00:15.207Z,1021.25
2019-03-24T07:01:15.202Z,1021.17
2019-03-24T07:02:15.203Z,1021.04
2019-03-24T07:03:15.182Z,1021.05
2019-03-24T07:04:15.171Z,1020.97
2019-03-24T07:05:15.152Z,1020.99
2019-03-24T07:06:15.153Z,1021.01
2019-03-24T07:07:15.137Z,1020.94
2019-03-24T07:08:15.124Z,1021.03
2019-03-24T07:09:15.121Z,1020.95
2019-03-24T07:10:15.121Z,1020.91
2019-03-24T07:11:15.093Z,1020.94
2019-03-24T07:12:15.078Z,1020.93
2019-03-24T07:13:15.068Z,1020.95
2019-03-24T07:14:15.064Z,1020.96
2019-03-24T07:15:15.050Z,1020.97
2019-03-24T07:16:15.042Z,1021.01
2019-03-24T07:17:15.035Z,1020.99
2019-03-24T07:18:15.014Z,1021.06
2019-03-24T07:19:15.026Z,1021.04
2019-03-24T07:20:15.030Z,1021.01
2019-03-24T07:21:14.997Z,1021.05
2019-03-24T07:22:14.982Z,1021.02
2019-03-24T07:23:14.970Z,1021.05
2019-03-24T07:24:14.956Z,1020.99
2019-03-24T07:25:14.955Z,1021.03
2019-03-24T07:26:14.934Z,1021.03
2019-03-24T07:27:14.920Z,1021.02
2019-03-24T07:28:14.907Z,1021.06
2019-03-24T07:29:14.896Z,1021.03
2019-03-24T07:30:14.898Z,1021.10
2019-03-24T07:31:14.890Z,1021.04
2019-03-24T07:32:14.870Z,1021.06
2019-03-24T07:33:14.852Z,1021.07
2019-03-24T07:34:14.863Z,1021.07
2019-03-24T07:35:14.846Z,1021.08
2019-03-24T07:36:14.824Z,1021.07
2019-03-24T07:37:14.830Z,1021.04
2019-03-24T07:38:14.805Z,1021.02
2019-03-24T07:39:14.798Z,1021.01
2019-03-24T07:40:14.790Z,1020.97
2019-03-24T07:41:14.794Z,1020.98
2019-03-24T07:42:14.774Z,1020.97
2019-03-24T07:43:14.744Z,1020.98
2019-03-24T07:44:14.756Z,1020.88
2019-03-24T07:45:14.744Z,1020.93
2019-03-24T07:46:14.729Z,1020.92
2019-03-24T07:47:14.721Z,1020.98
2019-03-24T07:48:19.036Z,1020.95
2019-03-24T07:49:14.683Z,1021.01
2019-03-24T07:50:14.670Z,1021.01
2019-03-24T07:51:14.680Z,1021.05
2019-03-24T07:52:14.648Z,1021.01
2019-03-24T07:53:14.656Z,1021.01
2019-03-24T07:54:14.628Z,1021.04
2019-03-24T07:55:14.624Z,1021.07
2019-03-24T07:56:14.606Z,1021.16
2019-03-24T07:57:14.603Z,1021.23
2019-03-24T07:58:14.593Z,1021.27
2019-03-24T07:59:14.586Z,1021.34
2019-03-24T08:00:14.586Z,1021.37
2019-03-24T08:01:14.551Z,1021.41
2019-03-24T08:02:14.542Z,1021.40
2019-03-24T08:03:14.522Z,1021.38
2019-03-24T08:04:14.519Z,1021.45
2019-03-24T08:05:14.504Z,1021.10
2019-03-24T08:06:14.503Z,1021.42
2019-03-24T08:07:14.492Z,1021.13
2019-03-24T08:08:14.496Z,1021.07
2019-03-24T08:09:14.464Z,1021.19
2019-03-24T08:10:14.466Z,1021.30
2019-03-24T08:11:14.442Z,1021.13
2019-03-24T08:12:14.428Z,1021.12
2019-03-24T08:13:14.426Z,1021.19
2019-03-24T08:14:14.408Z,1021.04
2019-03-24T08:15:14.554Z,1021.33
2019-03-24T08:16:14.426Z,1021.26
2019-03-24T08:17:45.178Z,1021.07
2019-03-24T08:18:45.134Z,1021.07
2019-03-24T08:20:15.906Z,1021.05
2019-03-24T08:21:15.916Z,1020.92
2019-03-24T08:22:46.721Z,1021.00
2019-03-24T08:23:46.646Z,1021.00
2019-03-24T08:24:46.636Z,1020.91
2019-03-24T08:25:46.590Z,1020.96
2019-03-24T08:26:46.570Z,1020.91
2019-03-24T08:27:46.574Z,1020.95
2019-03-24T08:28:46.573Z,1020.97
2019-03-24T08:29:46.568Z,1021.09
2019-03-24T08:30:46.528Z,1020.93
2019-03-24T08:31:46.508Z,1020.89
2019-03-24T08:32:46.508Z,1020.78
2019-03-24T08:33:46.535Z,1020.82
2019-03-24T08:34:48.323Z,1020.71
2019-03-24T08:35:46.506Z,1020.58
2019-03-24T08:36:46.531Z,1020.58
2019-03-24T08:37:46.446Z,1020.60
2019-03-24T08:38:46.474Z,1020.55
2019-03-24T08:39:46.459Z,1020.58
2019-03-24T08:40:46.425Z,1020.57
2019-03-24T08:41:46.458Z,1020.49
2019-03-24T08:42:46.418Z,1020.47
2019-03-24T08:43:46.400Z,1020.51
2019-03-24T08:44:46.381Z,1020.46
2019-03-24T08:45:46.398Z,1020.46
2019-03-24T08:46:47.215Z,1020.46
2019-03-24T08:47:46.357Z,1020.42
2019-03-24T08:48:46.344Z,1020.43
2019-03-24T08:49:46.353Z,1020.33
2019-03-24T08:50:46.324Z,1020.48
2019-03-24T08:51:46.336Z,1020.46
2019-03-24T08:52:46.313Z,1020.37
2019-03-24T08:53:46.309Z,1020.36
2019-03-24T08:54:46.297Z,1020.43
2019-03-24T08:55:46.272Z,1020.43
2019-03-24T08:56:46.258Z,1020.40
2019-03-24T08:57:46.230Z,1020.41
2019-03-24T08:58:46.219Z,1020.39
2019-03-24T08:59:46.276Z,1020.62
2019-03-24T09:00:46.208Z,1020.40
2019-03-24T09:01:46.220Z,1020.43
2019-03-24T09:02:46.234Z,1020.33
2019-03-24T09:03:46.199Z,1020.38
2019-03-24T09:04:46.158Z,1020.29
2019-03-24T09:05:46.149Z,1020.26
2019-03-24T09:06:46.137Z,1020.32
2019-03-24T09:07:46.124Z,1020.43
2019-03-24T09:08:46.118Z,1020.15
2019-03-24T09:09:46.123Z,1020.28
2019-03-24T09:10:46.111Z,1020.04
2019-03-24T09:11:46.082Z,1020.11
2019-03-24T09:12:46.090Z,1020.11
2019-03-24T09:13:46.083Z,1020.04
2019-03-24T09:14:46.081Z,1020.12
2019-03-24T09:15:46.042Z,1020.02
2019-03-24T09:16:46.035Z,1020.10
2019-03-24T09:17:46.098Z,1020.04
2019-03-24T09:18:52.689Z,1020.28
2019-03-24T09:19:47.076Z,1020.15
2019-03-24T09:20:45.986Z,1020.09
2019-03-24T09:21:46.022Z,1020.13
2019-03-24T09:22:45.964Z,1020.04
2019-03-24T09:23:45.964Z,1020.09
2019-03-24T09:24:45.950Z,1020.15
2019-03-24T09:25:45.935Z,1019.97
2019-03-24T09:26:45.923Z,1020.07
2019-03-24T09:27:45.910Z,1020.06
2019-03-24T09:28:45.901Z,1020.12
2019-03-24T09:29:47.507Z,1020.15
2019-03-24T09:30:46.040Z,1019.92
2019-03-24T09:32:16.610Z,1020.37
2019-03-24T09:33:16.603Z,1019.93
2019-03-24T09:34:47.453Z,1020.26
2019-03-24T09:35:47.510Z,1020.07
2019-03-24T09:37:18.025Z,1019.91
2019-03-24T09:38:18.031Z,1020.46
2019-03-24T09:39:48.840Z,1020.43
2019-03-24T09:40:49.627Z,1020.48
2019-03-24T09:42:20.406Z,1020.53
2019-03-24T09:43:20.385Z,1020.22
2019-03-24T09:44:51.076Z,1020.46
2019-03-24T09:45:51.224Z,1020.50
2019-03-24T09:47:21.745Z,1020.45
2019-03-24T09:48:21.730Z,1020.48
2019-03-24T09:49:52.470Z,1020.57
2019-03-24T09:50:52.466Z,1020.53
2019-03-24T09:52:23.153Z,1020.57
2019-03-24T09:53:23.119Z,1020.55
2019-03-24T09:54:53.967Z,1020.30
2019-03-24T09:55:53.867Z,1020.15
2019-03-24T09:57:24.740Z,1019.97
2019-03-24T09:58:24.576Z,1020.46
2019-03-24T09:59:24.552Z,1020.51
2019-03-24T10:00:24.570Z,1020.45
2019-03-24T10:01:24.541Z,1020.43
2019-03-24T10:02:24.554Z,1020.51
2019-03-24T10:03:24.515Z,1020.22
2019-03-24T10:04:24.510Z,1020.48
2019-03-24T10:05:24.562Z,1020.41
2019-03-24T10:06:24.507Z,1020.40
2019-03-24T10:07:24.506Z,1020.47
2019-03-24T10:08:24.463Z,1020.41
2019-03-24T10:09:24.462Z,1020.46
2019-03-24T10:10:24.447Z,1020.42
2019-03-24T10:11:24.437Z,1020.40
2019-03-24T10:12:24.422Z,1020.42
2019-03-24T10:13:24.414Z,1020.28
2019-03-24T10:14:24.423Z,1020.17
2019-03-24T10:15:24.396Z,1019.95
2019-03-24T10:16:24.393Z,1020.17
2019-03-24T10:17:24.392Z,1020.28
2019-03-24T10:18:24.374Z,1020.12
2019-03-24T10:19:24.376Z,1019.54
2019-03-24T10:20:24.361Z,1019.44
2019-03-24T10:21:24.338Z,1019.41
2019-03-24T10:22:24.335Z,1019.39
2019-03-24T10:23:24.322Z,1019.36
2019-03-24T10:24:24.313Z,1019.43
2019-03-24T10:25:24.297Z,1019.87
2019-03-24T10:26:24.286Z,1019.42
2019-03-24T10:27:24.277Z,1019.40
2019-03-24T10:28:24.284Z,1019.32
2019-03-24T10:29:24.263Z,1019.25
2019-03-24T10:30:24.240Z,1019.30
2019-03-24T10:31:24.232Z,1019.40
2019-03-24T10:32:24.217Z,1019.29
2019-03-24T10:33:24.220Z,1019.26
2019-03-24T10:34:24.210Z,1019.33
2019-03-24T10:35:24.184Z,1019.42
2019-03-24T10:36:24.182Z,1019.83
2019-03-24T10:37:24.171Z,1019.33
2019-03-24T10:38:24.158Z,1019.41
2019-03-24T10:39:24.150Z,1019.79
2019-03-24T10:40:28.661Z,1019.66
2019-03-24T10:41:25.121Z,1019.42
2019-03-24T10:42:24.112Z,1019.49
2019-03-24T10:43:24.112Z,1019.41
2019-03-24T10:44:24.095Z,1019.41
2019-03-24T10:45:24.090Z,1019.61
2019-03-24T10:46:24.076Z,1019.73
2019-03-24T10:47:24.063Z,1019.80
2019-03-24T10:48:33.358Z,1019.32
2019-03-24T10:49:25.461Z,1019.28
2019-03-24T10:50:24.032Z,1019.69
2019-03-24T10:51:24.032Z,1019.17
2019-03-24T10:52:24.016Z,1019.62
2019-03-24T10:53:24.000Z,1019.20
2019-03-24T10:54:23.985Z,1019.53
2019-03-24T10:55:23.978Z,1019.25
2019-03-24T10:56:23.979Z,1019.14
2019-03-24T10:57:23.958Z,1018.96
2019-03-24T10:58:23.961Z,1019.00
2019-03-24T10:59:23.945Z,1019.10
2019-03-24T11:00:23.931Z,1019.04
2019-03-24T11:01:23.919Z,1019.18
2019-03-24T11:02:23.908Z,1019.18
2019-03-24T11:03:23.899Z,1019.30
2019-03-24T11:04:23.890Z,1018.95
2019-03-24T11:05:23.874Z,1018.93
2019-03-24T11:06:23.868Z,1018.84
2019-03-24T11:07:23.858Z,1018.78
2019-03-24T11:08:23.848Z,1018.67
2019-03-24T11:09:23.837Z,1018.73
2019-03-24T11:10:23.817Z,1018.63
2019-03-24T11:11:23.820Z,1018.76
2019-03-24T11:12:23.802Z,1018.69
2019-03-24T11:13:23.793Z,1018.87
2019-03-24T11:14:23.792Z,1018.79
2019-03-24T11:15:23.773Z,1018.77
2019-03-24T11:16:23.760Z,1018.74
2019-03-24T11:17:23.747Z,1018.70
2019-03-24T11:18:23.735Z,1018.62
2019-03-24T11:19:23.728Z,1018.51
2019-03-24T11:20:23.715Z,1018.48
2019-03-24T11:21:23.706Z,1018.47
2019-03-24T11:22:23.692Z,1018.54
2019-03-24T11:23:23.694Z,1018.49
2019-03-24T11:24:23.671Z,1018.51
2019-03-24T11:25:23.670Z,1018.45
2019-03-24T11:26:23.660Z,1018.42
2019-03-24T11:27:23.642Z,1018.42
2019-03-24T11:28:23.629Z,1018.37
2019-03-24T11:29:23.627Z,1018.35
2019-03-24T11:30:23.614Z,1018.40
2019-03-24T11:31:23.612Z,1018.46
2019-03-24T11:32:23.587Z,1018.38
2019-03-24T11:33:23.579Z,1018.38
2019-03-24T11:34:23.568Z,1018.33
2019-03-24T11:35:23.557Z,1018.38
2019-03-24T11:36:23.546Z,1018.38
2019-03-24T11:37:23.532Z,1018.31
2019-03-24T11:38:23.532Z,1018.26
2019-03-24T11:39:23.518Z,1018.26
2019-03-24T11:40:23.504Z,1018.27
2019-03-24T11:41:23.490Z,1018.28
2019-03-24T11:42:23.483Z,1018.28
2019-03-24T11:43:23.488Z,1018.27
2019-03-24T11:44:23.460Z,1018.22
2019-03-24T11:45:23.448Z,1018.24
2019-03-24T11:46:23.444Z,1018.27
2019-03-24T11:47:26.875Z,1018.25
2019-03-24T11:48:23.450Z,1018.26
2019-03-24T11:49:23.404Z,1018.25
2019-03-24T11:50:23.389Z,1018.23
2019-03-24T11:51:23.396Z,1018.21
2019-03-24T11:52:23.370Z,1018.16
2019-03-24T11:53:23.368Z,1018.25
2019-03-24T11:54:23.344Z,1018.15
2019-03-24T11:55:23.334Z,1018.10
2019-03-24T11:56:23.634Z,1018.10
2019-03-24T11:57:23.328Z,1018.05
2019-03-24T11:58:23.305Z,1018.07
2019-03-24T11:59:23.300Z,1018.03
2019-03-24T12:00:23.283Z,1017.96
2019-03-24T12:01:23.300Z,1017.99
2019-03-24T12:02:23.261Z,1017.98
2019-03-24T12:03:25.289Z,1017.94
2019-03-24T12:04:23.254Z,1018.06
2019-03-24T12:05:23.232Z,1017.95
2019-03-24T12:06:23.223Z,1017.85
2019-03-24T12:07:23.204Z,1017.94
2019-03-24T12:08:23.204Z,1017.84
2019-03-24T12:09:23.187Z,1017.77
2019-03-24T12:10:23.181Z,1017.78
2019-03-24T12:11:23.161Z,1017.74
2019-03-24T12:12:23.159Z,1017.75